Commit Graph

  • b06bae6546 Merge branch 'main' into blocks_meta MihailRis 2024-06-06 16:15:11 +03:00
  • 87082c2cb6 update doc/ru/5.XML-разметка-интерфейса.md MihailRis 2024-06-06 15:19:45 +03:00
  • 7cbacba0c6 fix: EngineController::reconfigPacks MihailRis 2024-06-06 14:15:50 +03:00
  • 5870981933 fix: player physics when chunks reload MihailRis 2024-06-06 14:00:00 +03:00
  • 8fac69f17b Merge branch 'main' of https://github.com/Xertis/VoxelEngine-Cpp Xertis 2024-06-06 13:00:51 +03:00
  • 224604ec69 Adding compression functions to lua scripting Xertis 2024-06-06 13:00:23 +03:00
  • 86bbece599 Merge branch 'main' into blocks_meta MihailRis 2024-06-06 12:23:20 +03:00
  • bfeb32841f add file.gzip_compress_write Xertis 2024-06-06 12:17:37 +03:00
  • a57f8f41bb update: tooltip conditions MihailRis 2024-06-06 11:29:30 +03:00
  • 7db76a0e6a refactor: Batch2D and Batch3D MihailRis 2024-06-06 11:24:16 +03:00
  • 18a3dcaabf
    Merge pull request #223 from callfishxt/main MihailRis 2024-06-05 23:06:01 +03:00
  • 8700f892c6 fix: audio volume setting not applied on load MihailRis 2024-06-05 22:52:13 +03:00
  • 6e4c6b63e9
    Create windows.yml LumperBumper 2024-06-05 23:15:50 +05:00
  • b549023bda
    Delete .github/workflows/windows LumperBumper 2024-06-05 23:15:34 +05:00
  • 6744b592b2
    Create windows LumperBumper 2024-06-05 23:15:14 +05:00
  • ad62b759fb fix: input F1..F25 key codes & add binding 'chunks.reload' MihailRis 2024-06-05 19:29:35 +03:00
  • d316a5f818 fix: empty tooltip does not trigger reset MihailRis 2024-06-05 19:10:24 +03:00
  • 04c27ca800 fix: logger not flushing after every line MihailRis 2024-06-05 19:05:23 +03:00
  • 9211e835db fix: input.add_callback and blocks placing when shift pressed MihailRis 2024-06-05 18:32:43 +03:00
  • 277e60c522
    Update fi_FI.txt DomaJa 2024-06-05 13:06:43 +03:00
  • 9dadae6e34 world convert fatal error fix MihailRis 2024-06-05 09:41:06 +03:00
  • 6d6b8e24aa Merge branch 'main' of https://github.com/MihailRis/VoxelEngine-Cpp MihailRis 2024-06-05 09:09:58 +03:00
  • 2bb8075c2e console log caret fix MihailRis 2024-06-05 09:09:56 +03:00
  • ce8c9fc909
    Merge pull request #217 from rekvizitt/main MihailRis 2024-06-04 23:38:58 +03:00
  • 95a817c648
    Update be_BY.txt rekvizitt 2024-06-04 23:25:51 +03:00
  • e27170893e Merge branch 'main' of https://github.com/MihailRis/VoxelEngine-Cpp MihailRis 2024-06-04 23:20:24 +03:00
  • 2ee2ca7a38 fix: empty textbox double click causes fatal error MihailRis 2024-06-04 23:20:22 +03:00
  • 6cc95f2d15
    Merge pull request #215 from boolean-false/main MihailRis 2024-06-04 20:07:28 +03:00
  • db729cbfbb Enable macos artifact's default Danila Artyukhov 2024-06-04 19:19:10 +03:00
  • a5907302e5 Update macos dmg build Danila Artyukhov 2024-06-04 14:36:43 +03:00
  • fda694be61 Merge branch 'macos_build' Danila Artyukhov 2024-06-04 14:23:59 +03:00
  • bfd726ae7b MacOs app build workflow Danila Artyukhov 2024-06-04 14:23:49 +03:00
  • 98abbfd838 checkbox tooltips fix MihailRis 2024-06-04 12:47:16 +03:00
  • df2c024a3e settings tooltips MihailRis 2024-06-04 12:44:33 +03:00
  • 5e4dab1b6b added doc/ru/Консоль.md MihailRis 2024-06-04 10:49:46 +03:00
  • fd93994030 0.20 compatibility fix MihailRis 2024-06-03 22:54:05 +03:00
  • 1935b3099a
    Update Пользовательский-ввод.md MihailRis 2024-06-03 19:33:14 +03:00
  • 7097136cd3 grass_block.lua update to new api MihailRis 2024-06-03 19:25:08 +03:00
  • 15bb6d998d added doc/ru/Пользовательский-ввод.md MihailRis 2024-06-03 19:04:34 +03:00
  • 57fd91b417 file.exists, ... completely nothrow MihailRis 2024-06-03 18:23:00 +03:00
  • 5f00cf0d5b file.exists, file.isfile, file.isdir nothrow now MihailRis 2024-06-03 18:16:20 +03:00
  • db074b13be core.get_bindings moved to input.get_bindings MihailRis 2024-06-03 18:06:09 +03:00
  • 06e9d60bae update doc/ru/Файловая-система-и-сериализация.md MihailRis 2024-06-03 17:56:29 +03:00
  • b7887fa1ca file library error handling update MihailRis 2024-06-03 17:51:32 +03:00
  • eca050123d file.find fix + input.mousecode MihailRis 2024-06-03 17:44:57 +03:00
  • fdd9ede9d5 serialization functions naming update MihailRis 2024-06-03 17:33:55 +03:00
  • 7f58a38454 update doc/ru/8.Скриптинг.md MihailRis 2024-06-03 17:06:44 +03:00
  • 55815a53f0 update doc/ru/8.Скриптинг.md MihailRis 2024-06-03 16:54:03 +03:00
  • 3650e33f4c fix MihailRis 2024-06-03 16:33:15 +03:00
  • e8982353cc added block.caption(blockid) -> str MihailRis 2024-06-03 16:32:56 +03:00
  • 64f8d842af added docs/События-движка.md MihailRis 2024-06-03 16:16:48 +03:00
  • 538a74c56d languages list: template used MihailRis 2024-06-03 14:50:36 +03:00
  • ee8cc4cb7c github MihailRis 2024-06-03 11:25:05 +03:00
  • cf94a6629a added Файловая-система-и-сериализация.md MihailRis 2024-06-03 11:23:20 +03:00
  • c59973505e added node:destruct() MihailRis 2024-06-03 09:50:48 +03:00
  • b571179c8a res/config/builtins.list MihailRis 2024-06-03 08:37:34 +03:00
  • 4e2ba865f3 controls.json -> controls.toml MihailRis 2024-06-02 22:10:39 +03:00
  • d3e34741e0 res/bindings.toml moved to res/config MihailRis 2024-06-02 21:42:51 +03:00
  • 3a6fa57630 item on_use double call fix MihailRis 2024-06-01 12:57:10 +03:00
  • 731d43ff63 container:setInterval MihailRis 2024-06-01 12:25:53 +03:00
  • 9597879eff small fix MihailRis 2024-06-01 07:28:35 +03:00
  • 0f4b6911a6 small fix MihailRis 2024-05-31 20:38:50 +03:00
  • 7b0e31951b block tick interval MihailRis 2024-05-31 18:14:50 +03:00
  • e969d4fea2 BlocksController.hpp tabs -> spaces MihailRis 2024-05-31 17:47:39 +03:00
  • 0bfa717b71 Block.hpp tabs -> spaces MihailRis 2024-05-31 17:45:16 +03:00
  • 3abe8075ad aabb blocks preview fix MihailRis 2024-05-31 15:06:36 +03:00
  • 949f18e757 -Og optimizations level for Debug configuration (GCC and Clang) MihailRis 2024-05-31 13:23:13 +03:00
  • e082b4f3b5
    Merge pull request #213 from MihailRis/block_states_to_bitfield MihailRis 2024-05-31 12:07:09 +03:00
  • 3003386670 chunk flags converted to a bitfield MihailRis 2024-05-31 11:59:12 +03:00
  • 3e0455358a fix: debug panel - block name out of panel MihailRis 2024-05-31 11:42:09 +03:00
  • 86dd6562de fix: user bits and manually set rotation not saving MihailRis 2024-05-31 11:26:16 +03:00
  • 6d933ac263 converting block states to a bitfield MihailRis 2024-05-31 11:13:36 +03:00
  • 5dd06b233e u_timer in the main shader MihailRis 2024-05-31 08:46:05 +03:00
  • 74042b5c2a player.get_selected_block MihailRis 2024-05-31 08:33:37 +03:00
  • 29ca6e969c fix: block states cause crash for rotatable blocks MihailRis 2024-05-30 18:17:21 +03:00
  • c9fb33132f weather is saving now MihailRis 2024-05-30 16:02:01 +03:00
  • 96593bdb5d minor refactor MihailRis 2024-05-28 18:49:03 +03:00
  • db071982c9 memory-related refactor MihailRis 2024-05-28 05:17:56 +03:00
  • fb9b85ef54 Merge branch 'main' into blocks_meta MihailRis 2024-05-28 04:46:07 +03:00
  • 2d27e5662a label size fix MihailRis 2024-05-28 04:02:35 +03:00
  • fd87fbe7f0 memory-related refactor MihailRis 2024-05-28 03:52:13 +03:00
  • bc84200798 gui errors handling update + fix MihailRis 2024-05-27 13:33:14 +03:00
  • 9fce00ae45 minor reformat MihailRis 2024-05-27 11:09:21 +03:00
  • 030c9ca085 right click item increment fix with stack MihailRis 2024-05-27 07:19:13 +03:00
  • e8a703f814 LeveController delta time limited to 200 ms MihailRis 2024-05-25 10:17:55 +03:00
  • 43903bb378 memory-related refactor MihailRis 2024-05-25 09:26:21 +03:00
  • d437b67580 minor refactor MihailRis 2024-05-25 09:09:31 +03:00
  • cc27e4b224 fix: tooltip visibility when cursor is hidden MihailRis 2024-05-25 06:24:54 +03:00
  • e3989cb178 added 'tooltip-delay' property MihailRis 2024-05-24 13:18:20 +03:00
  • 4400efae33 item captions format update MihailRis 2024-05-24 09:23:26 +03:00
  • fa985138c4 fix: tooltip getting out of the root container MihailRis 2024-05-24 09:07:11 +03:00
  • eb10904069 added tooltips MihailRis 2024-05-24 08:03:05 +03:00
  • 1c45236693 added wpos property (window position) MihailRis 2024-05-24 05:33:31 +03:00
  • a1776e015e fixes MihailRis 2024-05-24 05:22:14 +03:00
  • 5ac51a6fa4 player.get_rot docs fix MihailRis 2024-05-24 02:01:06 +03:00
  • acac22d9c9 player.set_noclip docs fix MihailRis 2024-05-24 01:59:38 +03:00
  • 0eba793d63 added player camera rotation z axis MihailRis 2024-05-24 01:58:34 +03:00
  • 1917cbba8b new player.* functions MihailRis 2024-05-24 01:38:39 +03:00
  • 0ad3dd7ab8 build time decreased MihailRis 2024-05-23 02:05:08 +03:00
  • 41ef80e938 checkbox fix MihailRis 2024-05-22 22:39:27 +03:00